createdAt,value
2022-10-03T00:02:52.663Z,19.35
2022-10-03T00:08:14.391Z,19.34
2022-10-03T00:14:15.059Z,19.34
2022-10-03T00:20:08.854Z,19.33
2022-10-03T00:25:48.053Z,19.32
2022-10-03T00:31:15.301Z,19.30
2022-10-03T00:36:49.998Z,19.29
2022-10-03T00:42:40.316Z,19.28
2022-10-03T00:48:23.245Z,19.25
2022-10-03T00:53:50.944Z,19.21
2022-10-03T00:59:15.918Z,19.22
2022-10-03T01:04:58.324Z,19.22
2022-10-03T01:10:28.303Z,19.22
2022-10-03T01:16:20.352Z,19.20
2022-10-03T01:21:52.773Z,19.18
2022-10-03T01:27:25.237Z,19.18
2022-10-03T01:32:49.949Z,19.17
2022-10-03T01:38:24.971Z,19.16
2022-10-03T01:43:55.878Z,19.17
2022-10-03T01:49:26.040Z,19.16
2022-10-03T01:55:19.583Z,19.15
2022-10-03T02:01:04.551Z,19.14
2022-10-03T02:06:43.145Z,19.11
2022-10-03T02:12:30.337Z,19.11
2022-10-03T02:17:58.233Z,19.10
2022-10-03T02:23:44.172Z,19.08
2022-10-03T02:29:23.791Z,19.08
2022-10-03T02:35:08.052Z,19.06
2022-10-03T02:40:44.642Z,19.06
2022-10-03T02:46:43.884Z,19.04
2022-10-03T02:52:11.378Z,19.04
2022-10-03T02:57:41.901Z,19.04
2022-10-03T03:03:21.490Z,19.03
2022-10-03T03:09:01.535Z,19.01
2022-10-03T03:14:43.998Z,19.01
2022-10-03T03:20:37.551Z,19.00
2022-10-03T03:26:29.783Z,19.00
2022-10-03T03:32:02.217Z,18.97
2022-10-03T03:37:36.065Z,18.97
2022-10-03T03:43:34.582Z,18.96
2022-10-03T03:49:13.427Z,18.96
2022-10-03T03:54:59.301Z,18.96
2022-10-03T04:00:31.522Z,18.94
2022-10-03T04:06:13.199Z,18.95
2022-10-03T04:12:08.052Z,18.93
2022-10-03T04:18:04.160Z,18.92
2022-10-03T04:23:58.363Z,18.90
2022-10-03T04:29:19.943Z,18.88
2022-10-03T04:34:44.293Z,18.88
2022-10-03T04:40:24.044Z,18.87
2022-10-03T04:45:45.921Z,18.86
2022-10-03T04:51:32.277Z,18.87
2022-10-03T04:57:02.910Z,18.86
2022-10-03T05:02:36.968Z,18.87
2022-10-03T05:08:07.662Z,18.86
2022-10-03T05:13:41.282Z,18.86
2022-10-03T05:19:21.494Z,18.86
2022-10-03T05:24:56.332Z,18.86
2022-10-03T05:30:36.489Z,18.87
2022-10-03T05:36:06.282Z,18.84
2022-10-03T05:41:36.582Z,18.84
2022-10-03T05:47:03.825Z,18.82
2022-10-03T05:52:43.570Z,18.84
2022-10-03T05:58:20.588Z,18.83
2022-10-03T06:04:05.032Z,18.83
2022-10-03T06:09:27.649Z,18.80
2022-10-03T06:15:13.708Z,18.81
2022-10-03T06:20:47.118Z,18.79
2022-10-03T06:26:45.136Z,18.80
2022-10-03T06:32:47.098Z,18.80
2022-10-03T06:38:27.313Z,18.81
2022-10-03T06:44:11.225Z,18.86
2022-10-03T06:50:04.258Z,18.94
2022-10-03T06:55:44.103Z,19.00
2022-10-03T07:01:11.653Z,19.07
2022-10-03T07:07:05.971Z,19.13
2022-10-03T07:12:34.092Z,19.19
2022-10-03T07:18:17.501Z,19.36
2022-10-03T07:24:02.881Z,20.01
2022-10-03T07:29:50.521Z,22.33
2022-10-03T07:35:50.826Z,24.07
2022-10-03T07:41:25.105Z,24.92
2022-10-03T07:46:52.607Z,25.80
2022-10-03T07:52:40.458Z,26.61
2022-10-03T07:58:11.202Z,26.98
2022-10-03T08:04:09.716Z,26.76
2022-10-03T08:09:43.573Z,25.28
2022-10-03T08:15:27.190Z,23.85
2022-10-03T08:21:00.917Z,22.84
2022-10-03T08:26:48.084Z,22.11
2022-10-03T08:32:48.842Z,21.59
2022-10-03T08:38:10.652Z,21.18
2022-10-03T08:43:56.866Z,20.90
2022-10-03T08:49:40.877Z,20.69
2022-10-03T08:55:31.788Z,20.53
2022-10-03T09:01:12.071Z,20.39
2022-10-03T09:07:15.383Z,20.28
2022-10-03T09:13:06.207Z,20.18
2022-10-03T09:18:59.959Z,20.11
2022-10-03T09:24:44.361Z,20.03
2022-10-03T09:30:16.024Z,19.98
2022-10-03T09:35:40.361Z,19.91
2022-10-03T09:41:32.801Z,19.90
2022-10-03T09:47:24.311Z,19.83
2022-10-03T09:53:15.983Z,19.76
2022-10-03T09:59:15.104Z,19.73
2022-10-03T10:05:01.348Z,19.68
2022-10-03T10:11:00.704Z,19.68
2022-10-03T10:16:48.366Z,19.66
2022-10-03T10:22:32.018Z,19.62
2022-10-03T10:28:08.657Z,19.60
2022-10-03T10:34:07.874Z,19.58
2022-10-03T10:39:48.461Z,19.57
2022-10-03T10:45:51.464Z,19.56
2022-10-03T10:51:50.183Z,19.53
2022-10-03T10:57:48.995Z,19.53
2022-10-03T11:03:22.697Z,19.52
2022-10-03T11:09:06.163Z,19.51
2022-10-03T11:14:28.386Z,19.51
2022-10-03T11:20:10.377Z,19.52
2022-10-03T11:25:59.761Z,19.50
2022-10-03T11:31:38.245Z,19.48
2022-10-03T11:37:02.597Z,19.46
2022-10-03T11:42:53.469Z,19.48
2022-10-03T11:48:24.229Z,19.45
2022-10-03T11:54:26.670Z,19.46
2022-10-03T12:00:10.385Z,19.45
2022-10-03T12:06:15.985Z,19.43
2022-10-03T12:11:46.921Z,19.44
2022-10-03T12:17:18.046Z,19.44
2022-10-03T12:22:59.013Z,19.44
2022-10-03T12:28:30.556Z,19.43
2022-10-03T12:34:17.866Z,19.44
2022-10-03T12:39:48.680Z,19.43
2022-10-03T12:45:34.750Z,19.46
2022-10-03T12:51:20.273Z,19.43
2022-10-03T12:56:49.735Z,19.43
2022-10-03T13:02:23.010Z,19.43
2022-10-03T13:08:24.937Z,19.43
2022-10-03T13:14:06.422Z,19.51
2022-10-03T13:19:43.594Z,19.57
2022-10-03T13:25:18.369Z,19.62
2022-10-03T13:30:56.204Z,19.67
2022-10-03T13:36:37.497Z,19.72
2022-10-03T13:42:56.266Z,19.75
2022-10-03T13:48:27.187Z,19.75
2022-10-03T13:54:07.048Z,19.77
2022-10-03T13:59:52.644Z,19.78
2022-10-03T14:05:23.372Z,19.78
2022-10-03T14:11:10.604Z,19.74
2022-10-03T14:16:36.465Z,19.64
2022-10-03T14:22:22.836Z,19.60
2022-10-03T14:28:13.273Z,19.56
2022-10-03T14:33:47.005Z,19.54
2022-10-03T14:39:38.920Z,19.53
2022-10-03T14:45:17.901Z,19.54
2022-10-03T14:50:42.159Z,19.51
2022-10-03T14:56:08.590Z,19.50
2022-10-03T15:01:30.728Z,19.48
2022-10-03T15:06:55.128Z,19.49
2022-10-03T15:12:25.208Z,19.48
2022-10-03T15:17:50.462Z,19.47
2022-10-03T15:23:36.640Z,19.48
2022-10-03T15:29:01.153Z,19.47
2022-10-03T15:34:28.328Z,19.47
2022-10-03T15:39:52.842Z,19.48
2022-10-03T15:45:22.054Z,19.48
2022-10-03T15:50:51.975Z,19.49
2022-10-03T15:56:24.115Z,19.46
2022-10-03T16:01:50.869Z,19.46
2022-10-03T16:07:35.858Z,19.46
2022-10-03T16:12:59.534Z,19.44
2022-10-03T16:18:21.214Z,19.40
2022-10-03T16:23:46.050Z,19.40
2022-10-03T16:29:17.830Z,19.44
2022-10-03T16:34:44.708Z,19.43
2022-10-03T16:40:08.308Z,19.43
2022-10-03T16:45:44.452Z,19.45
2022-10-03T16:51:15.985Z,19.42
2022-10-03T16:56:43.841Z,19.40
2022-10-03T17:02:14.585Z,19.37
2022-10-03T17:07:48.562Z,19.37
2022-10-03T17:13:13.116Z,19.33
2022-10-03T17:18:41.709Z,19.31
2022-10-03T17:24:09.430Z,19.28
2022-10-03T17:29:42.257Z,19.26
2022-10-03T17:35:20.336Z,19.26
2022-10-03T17:41:13.560Z,19.24
2022-10-03T17:46:45.201Z,19.23
2022-10-03T17:52:16.260Z,19.19
2022-10-03T17:57:50.761Z,19.27
2022-10-03T18:03:32.169Z,19.40
2022-10-03T18:08:56.057Z,19.48
2022-10-03T18:14:42.204Z,19.63
2022-10-03T18:20:40.162Z,19.84
2022-10-03T18:26:20.832Z,20.01
2022-10-03T18:31:55.831Z,20.18
2022-10-03T18:37:40.377Z,20.33
2022-10-03T18:43:06.182Z,20.36
2022-10-03T18:48:35.393Z,20.39
2022-10-03T18:54:03.288Z,20.40
2022-10-03T18:59:38.829Z,20.39
2022-10-03T19:05:08.475Z,20.36
2022-10-03T19:10:40.337Z,20.34
2022-10-03T19:16:10.791Z,20.30
2022-10-03T19:21:43.283Z,20.27
2022-10-03T19:27:18.505Z,20.24
2022-10-03T19:32:57.702Z,20.19
2022-10-03T19:38:28.738Z,20.17
2022-10-03T19:43:51.127Z,20.13
2022-10-03T19:49:26.331Z,20.18
2022-10-03T19:55:04.287Z,20.20
2022-10-03T20:00:37.350Z,20.29
2022-10-03T20:06:13.936Z,20.36
2022-10-03T20:12:04.162Z,20.42
2022-10-03T20:17:26.635Z,20.42
2022-10-03T20:22:49.560Z,20.43
2022-10-03T20:28:45.556Z,20.41
2022-10-03T20:34:15.342Z,20.37
2022-10-03T20:39:38.904Z,20.35
2022-10-03T20:45:38.914Z,20.33
2022-10-03T20:51:01.626Z,20.33
2022-10-03T20:56:36.289Z,20.31
2022-10-03T21:02:10.012Z,20.26
2022-10-03T21:07:37.539Z,20.24
2022-10-03T21:13:08.383Z,20.24
2022-10-03T21:18:41.046Z,20.22
2022-10-03T21:24:02.817Z,20.20
2022-10-03T21:29:24.375Z,20.17
2022-10-03T21:35:05.320Z,20.14
2022-10-03T21:40:36.381Z,20.09
2022-10-03T21:46:29.170Z,20.05
2022-10-03T21:52:09.519Z,20.00
2022-10-03T21:57:48.538Z,19.95
2022-10-03T22:03:24.106Z,19.94
2022-10-03T22:08:48.864Z,19.89
2022-10-03T22:14:48.687Z,19.87
2022-10-03T22:20:21.173Z,19.86
2022-10-03T22:26:21.496Z,19.83
2022-10-03T22:31:46.157Z,19.79
2022-10-03T22:37:08.025Z,19.76
2022-10-03T22:42:35.015Z,19.74
2022-10-03T22:48:01.979Z,19.71
2022-10-03T22:53:28.970Z,19.68
2022-10-03T22:58:52.189Z,19.67
2022-10-03T23:04:24.716Z,19.66
2022-10-03T23:10:02.970Z,19.64
2022-10-03T23:15:26.610Z,19.62
2022-10-03T23:21:06.415Z,19.61
2022-10-03T23:26:49.231Z,19.62
2022-10-03T23:32:11.617Z,19.57
2022-10-03T23:37:39.695Z,19.55
2022-10-03T23:43:19.256Z,19.54
2022-10-03T23:48:48.170Z,19.53
2022-10-03T23:54:12.679Z,19.51
2022-10-03T23:59:38.067Z,19.49
